createdAt,value
2023-03-07T00:01:09.282Z,96692.12
2023-03-07T00:04:31.318Z,96691.08
2023-03-07T00:08:28.098Z,96694.52
2023-03-07T00:11:51.339Z,96689.95
2023-03-07T00:15:47.207Z,96691.02
2023-03-07T00:19:09.470Z,96690.61
2023-03-07T00:22:47.096Z,96689.84
2023-03-07T00:26:26.195Z,96691.84
2023-03-07T00:30:04.798Z,96688.09
2023-03-07T00:33:40.726Z,96687.31
2023-03-07T00:37:36.566Z,96684.75
2023-03-07T00:41:06.655Z,96676.61
2023-03-07T00:44:36.526Z,96681.42
2023-03-07T00:48:35.695Z,96675.70
2023-03-07T00:51:58.070Z,96674.66
2023-03-07T00:56:15.050Z,96676.34
2023-03-07T00:59:38.016Z,96671.79
2023-03-07T01:03:35.394Z,96668.69
2023-03-07T01:06:57.659Z,96668.54
2023-03-07T01:10:59.121Z,96664.35
2023-03-07T01:14:21.740Z,96657.09
2023-03-07T01:18:18.394Z,96659.20
2023-03-07T01:21:42.898Z,96654.16
2023-03-07T01:25:18.921Z,96653.37
2023-03-07T01:28:59.308Z,96650.08
2023-03-07T01:32:57.934Z,96651.34
2023-03-07T01:36:30.546Z,96644.25
2023-03-07T01:39:59.058Z,96640.96
2023-03-07T01:43:37.723Z,96641.05
2023-03-07T01:47:14.453Z,96641.86
2023-03-07T01:50:52.068Z,96640.88
2023-03-07T01:54:31.917Z,96635.80
2023-03-07T01:58:13.140Z,96631.27
2023-03-07T02:02:11.383Z,96632.39
2023-03-07T02:05:59.268Z,96626.23
2023-03-07T02:09:23.697Z,96625.53
2023-03-07T02:12:59.193Z,96617.84
2023-03-07T02:16:39.230Z,96620.43
2023-03-07T02:20:18.267Z,96625.67
2023-03-07T02:24:32.138Z,96624.67
2023-03-07T02:27:57.351Z,96621.92
2023-03-07T02:31:32.535Z,96618.69
2023-03-07T02:35:17.044Z,96615.14
2023-03-07T02:38:50.820Z,96616.80
2023-03-07T02:42:46.403Z,96614.34
2023-03-07T02:46:09.980Z,96606.30
2023-03-07T02:49:47.339Z,96605.10
2023-03-07T02:53:45.211Z,96603.80
2023-03-07T02:57:08.545Z,96602.06
2023-03-07T03:00:46.222Z,96607.23
2023-03-07T03:04:43.985Z,96604.91
2023-03-07T03:08:27.055Z,96602.61
2023-03-07T03:12:10.758Z,96601.47
2023-03-07T03:15:36.008Z,96606.60
2023-03-07T03:19:13.451Z,96606.70
2023-03-07T03:22:52.246Z,96604.58
2023-03-07T03:26:29.784Z,96604.52
2023-03-07T03:30:12.265Z,96604.23
2023-03-07T03:34:04.674Z,96603.25
2023-03-07T03:37:31.401Z,96604.59
2023-03-07T03:41:26.148Z,96602.48
2023-03-07T03:45:10.945Z,96600.75
2023-03-07T03:48:34.126Z,96601.38
2023-03-07T03:52:30.939Z,96598.95
2023-03-07T03:55:54.574Z,96596.77
2023-03-07T03:59:31.208Z,96599.42
2023-03-07T04:03:10.248Z,96595.15
2023-03-07T04:07:06.776Z,96597.79
2023-03-07T04:10:29.479Z,96598.69
2023-03-07T04:14:26.376Z,96598.21
2023-03-07T04:17:51.838Z,96597.65
2023-03-07T04:21:46.131Z,96595.58
2023-03-07T04:25:12.453Z,96598.06
2023-03-07T04:29:09.497Z,96598.83
2023-03-07T04:32:57.678Z,96597.50
2023-03-07T04:36:26.318Z,96597.08
2023-03-07T04:39:59.768Z,96594.84
2023-03-07T04:43:56.482Z,96596.84
2023-03-07T04:47:42.224Z,96600.33
2023-03-07T04:51:08.242Z,96595.73
2023-03-07T04:55:02.664Z,96595.89
2023-03-07T04:58:48.094Z,96590.70
2023-03-07T05:02:14.877Z,96589.58
2023-03-07T05:05:52.503Z,96589.45
2023-03-07T05:09:48.469Z,96590.18
2023-03-07T05:13:14.053Z,96588.86
2023-03-07T05:17:09.547Z,96586.39
2023-03-07T05:20:51.579Z,96584.80
2023-03-07T05:24:15.566Z,96584.95
2023-03-07T05:28:12.024Z,96584.45
2023-03-07T05:31:36.277Z,96584.81
2023-03-07T05:35:13.431Z,96585.35
2023-03-07T05:38:53.798Z,96585.73
2023-03-07T05:42:28.740Z,96585.13
2023-03-07T05:46:07.333Z,96588.35
2023-03-07T05:49:43.962Z,96591.45
2023-03-07T05:53:21.507Z,96589.54
2023-03-07T05:57:18.147Z,96584.78
2023-03-07T06:00:41.476Z,96584.16
2023-03-07T06:04:19.213Z,96585.55
2023-03-07T06:07:57.123Z,96584.36
2023-03-07T06:11:38.990Z,96579.59
2023-03-07T06:15:12.159Z,96583.89
2023-03-07T06:19:08.803Z,96587.54
2023-03-07T06:22:52.167Z,96585.04
2023-03-07T06:26:17.410Z,96586.52
2023-03-07T06:30:13.121Z,96582.13
2023-03-07T06:33:36.240Z,96581.36
2023-03-07T06:37:32.440Z,96581.92
2023-03-07T06:41:17.146Z,96583.90
2023-03-07T06:45:01.150Z,96579.20
2023-03-07T06:48:24.397Z,96580.17
2023-03-07T06:52:01.583Z,96577.57
2023-03-07T06:55:39.676Z,96575.14
2023-03-07T06:59:17.456Z,96569.63
2023-03-07T07:03:15.652Z,96564.13
2023-03-07T07:06:37.776Z,96561.22
2023-03-07T07:10:16.323Z,96561.74
2023-03-07T07:14:12.208Z,96554.85
2023-03-07T07:17:39.151Z,96560.59
2023-03-07T07:21:33.749Z,96557.71
2023-03-07T07:24:56.114Z,96558.52
2023-03-07T07:28:52.810Z,96556.10
2023-03-07T07:32:35.573Z,96550.69
2023-03-07T07:36:18.011Z,96549.09
2023-03-07T07:39:45.305Z,96547.00
2023-03-07T07:43:18.553Z,96547.42
2023-03-07T07:47:15.069Z,96547.47
2023-03-07T07:51:02.290Z,96547.19
2023-03-07T07:54:25.743Z,96542.84
2023-03-07T07:58:25.687Z,96533.39
2023-03-07T08:01:50.532Z,96538.23
2023-03-07T08:05:28.236Z,96532.06
2023-03-07T08:09:24.907Z,96525.55
2023-03-07T08:12:53.096Z,96525.81
2023-03-07T08:16:44.538Z,96522.16
2023-03-07T08:20:10.035Z,96515.37
2023-03-07T08:24:03.469Z,96520.77
2023-03-07T08:27:45.085Z,96515.40
2023-03-07T08:31:10.283Z,96522.30
2023-03-07T08:34:44.914Z,96521.77
2023-03-07T08:38:42.280Z,96520.88
2023-03-07T08:42:07.274Z,96522.87
2023-03-07T08:45:44.635Z,96520.45
2023-03-07T08:49:40.512Z,96520.81
2023-03-07T08:53:22.525Z,96522.45
2023-03-07T08:56:44.871Z,96517.27
2023-03-07T09:00:22.825Z,96511.54
2023-03-07T09:04:19.271Z,96503.47
2023-03-07T09:07:42.489Z,96504.48
2023-03-07T09:11:38.328Z,96500.69
2023-03-07T09:15:21.444Z,96494.77
2023-03-07T09:18:43.668Z,96492.20
2023-03-07T09:22:46.070Z,96485.38
2023-03-07T09:26:13.246Z,96482.20
2023-03-07T09:29:49.753Z,96477.42
2023-03-07T09:33:26.407Z,96475.30
2023-03-07T09:37:03.718Z,96464.50
2023-03-07T09:40:41.182Z,96461.66
2023-03-07T09:44:52.322Z,96454.25
2023-03-07T09:49:16.705Z,96449.08
2023-03-07T09:52:45.449Z,96449.98
2023-03-07T09:56:39.396Z,96451.10
2023-03-07T10:00:31.317Z,96443.94
2023-03-07T10:04:20.888Z,96441.64
2023-03-07T10:08:04.735Z,96425.70
2023-03-07T10:12:28.179Z,96419.73
2023-03-07T10:15:53.094Z,96414.41
2023-03-07T10:20:00.170Z,96417.20
2023-03-07T10:24:19.471Z,96420.01
2023-03-07T10:27:45.252Z,96418.49
2023-03-07T10:31:43.852Z,96416.17
2023-03-07T10:35:12.113Z,96406.16
2023-03-07T10:39:05.675Z,96412.48
2023-03-07T10:42:36.515Z,96401.75
2023-03-07T10:46:30.161Z,96394.02
2023-03-07T10:50:06.732Z,96385.70
2023-03-07T10:53:40.798Z,96385.98
2023-03-07T10:57:14.887Z,96383.64
2023-03-07T11:00:57.302Z,96380.02
2023-03-07T11:04:27.379Z,96379.06
2023-03-07T11:08:21.538Z,96376.05
2023-03-07T11:12:06.261Z,96367.35
2023-03-07T11:15:28.801Z,96361.52
2023-03-07T11:19:28.228Z,96360.91
2023-03-07T11:23:19.318Z,96353.05
2023-03-07T11:26:44.552Z,96350.50
2023-03-07T11:30:52.860Z,96358.01
2023-03-07T11:34:47.273Z,96362.16
2023-03-07T11:38:28.686Z,96358.41
2023-03-07T11:41:56.596Z,96356.82
2023-03-07T11:45:56.683Z,96345.31
2023-03-07T11:49:50.269Z,96349.62
2023-03-07T11:53:41.896Z,96346.17
2023-03-07T11:57:57.937Z,96342.91
2023-03-07T12:01:43.307Z,96339.33
2023-03-07T12:05:40.643Z,96329.73
2023-03-07T12:09:33.393Z,96331.55
2023-03-07T12:13:09.193Z,96335.29
2023-03-07T12:17:04.265Z,96331.58
2023-03-07T12:21:07.583Z,96325.06
2023-03-07T12:24:41.008Z,96314.43
2023-03-07T12:28:27.002Z,96307.55
2023-03-07T12:31:54.205Z,96308.90
2023-03-07T12:36:03.885Z,96306.38
2023-03-07T12:39:52.028Z,96312.79
2023-03-07T12:43:37.834Z,96301.48
2023-03-07T12:47:11.722Z,96296.48
2023-03-07T12:50:39.892Z,96297.42
2023-03-07T12:54:34.193Z,96292.45
2023-03-07T12:58:32.074Z,96292.21
2023-03-07T13:02:03.358Z,96289.82
2023-03-07T13:05:41.602Z,96288.64
2023-03-07T13:09:22.080Z,96282.90
2023-03-07T13:12:49.851Z,96279.84
2023-03-07T13:16:32.168Z,96271.70
2023-03-07T13:20:36.937Z,96270.33
2023-03-07T13:24:33.949Z,96269.55
2023-03-07T13:28:01.844Z,96273.30
2023-03-07T13:31:39.418Z,96269.81
2023-03-07T13:35:13.167Z,96264.25
2023-03-07T13:39:37.509Z,96268.34
2023-03-07T13:43:22.557Z,96259.29
2023-03-07T13:46:48.522Z,96259.08
2023-03-07T13:50:53.398Z,96253.91
2023-03-07T13:54:34.607Z,96259.77
2023-03-07T13:58:02.513Z,96259.73
2023-03-07T14:02:11.867Z,96259.44
2023-03-07T14:05:36.911Z,96254.27
2023-03-07T14:09:23.219Z,96253.70
2023-03-07T14:13:19.597Z,96245.64
2023-03-07T14:16:59.689Z,96239.61
2023-03-07T14:21:08.993Z,96237.92
2023-03-07T14:24:34.835Z,96234.52
2023-03-07T14:28:27.064Z,96238.21
2023-03-07T14:32:21.211Z,96236.61
2023-03-07T14:35:45.261Z,96242.77
2023-03-07T14:39:22.033Z,96236.84
2023-03-07T14:43:26.352Z,96237.40
2023-03-07T14:47:19.559Z,96233.68
2023-03-07T14:50:46.192Z,96234.05
2023-03-07T14:54:29.531Z,96240.80
2023-03-07T14:57:58.271Z,96229.25
2023-03-07T15:01:40.275Z,96221.39
2023-03-07T15:05:45.810Z,96226.16
2023-03-07T15:09:10.842Z,96219.42
2023-03-07T15:13:13.819Z,96222.95
2023-03-07T15:16:49.848Z,96216.72
2023-03-07T15:20:23.506Z,96210.98
2023-03-07T15:23:58.778Z,96213.58
2023-03-07T15:28:05.030Z,96204.52
2023-03-07T15:31:31.001Z,96203.02
2023-03-07T15:35:26.498Z,96204.11
2023-03-07T15:39:28.482Z,96201.46
2023-03-07T15:43:22.853Z,96202.34
2023-03-07T15:46:52.586Z,96199.33
2023-03-07T15:50:24.938Z,96202.16
2023-03-07T15:54:29.728Z,96202.73
2023-03-07T15:58:13.812Z,96194.95
2023-03-07T16:01:55.952Z,96195.35
2023-03-07T16:05:19.192Z,96187.91
2023-03-07T16:09:17.558Z,96183.70
2023-03-07T16:12:46.504Z,96183.63
2023-03-07T16:16:25.924Z,96182.43
2023-03-07T16:19:56.694Z,96183.84
2023-03-07T16:23:51.780Z,96186.98
2023-03-07T16:27:21.598Z,96186.58
2023-03-07T16:30:53.123Z,96186.33
2023-03-07T16:34:49.333Z,96182.99
2023-03-07T16:38:12.124Z,96183.64
2023-03-07T16:42:21.555Z,96184.45
2023-03-07T16:46:08.574Z,96183.27
2023-03-07T16:49:30.836Z,96188.57
2023-03-07T16:53:27.491Z,96190.73
2023-03-07T16:57:15.249Z,96192.34
2023-03-07T17:00:58.374Z,96192.84
2023-03-07T17:04:20.830Z,96192.66
2023-03-07T17:08:00.432Z,96193.27
2023-03-07T17:11:45.188Z,96185.95
2023-03-07T17:15:20.971Z,96193.10
2023-03-07T17:18:51.403Z,96190.98
2023-03-07T17:22:53.167Z,96190.82
2023-03-07T17:26:27.167Z,96192.44
2023-03-07T17:29:54.793Z,96193.42
2023-03-07T17:33:32.233Z,96197.46
2023-03-07T17:37:11.572Z,96198.02
2023-03-07T17:41:05.284Z,96198.58
2023-03-07T17:44:32.310Z,96194.68
2023-03-07T17:48:27.240Z,96198.47
2023-03-07T17:52:08.459Z,96200.88
2023-03-07T17:55:50.853Z,96203.14
2023-03-07T17:59:32.602Z,96202.07
2023-03-07T18:03:13.529Z,96203.52
2023-03-07T18:06:40.948Z,96205.42
2023-03-07T18:10:32.735Z,96201.99
2023-03-07T18:13:55.004Z,96202.89
2023-03-07T18:17:46.613Z,96205.84
2023-03-07T18:21:30.218Z,96209.23
2023-03-07T18:24:55.137Z,96210.46
2023-03-07T18:28:53.715Z,96215.03
2023-03-07T18:32:35.035Z,96214.64
2023-03-07T18:36:17.853Z,96212.40
2023-03-07T18:40:00.232Z,96213.48
2023-03-07T18:44:18.651Z,96209.31
2023-03-07T18:48:13.734Z,96207.41
2023-03-07T18:51:51.108Z,96207.25
2023-03-07T18:55:31.518Z,96202.77
2023-03-07T18:59:06.454Z,96207.27
2023-03-07T19:02:45.936Z,96205.34
2023-03-07T19:06:03.242Z,96200.55
2023-03-07T19:09:43.302Z,96198.14
2023-03-07T19:13:19.319Z,96194.71
2023-03-07T19:16:55.840Z,96188.95
2023-03-07T19:20:52.646Z,96184.08
2023-03-07T19:24:12.021Z,96180.45
2023-03-07T19:27:49.093Z,96178.63
2023-03-07T19:31:29.779Z,96176.54
2023-03-07T19:35:23.409Z,96176.02
2023-03-07T19:38:43.384Z,96167.36
2023-03-07T19:42:21.610Z,96162.67
2023-03-07T19:45:58.846Z,96162.39
2023-03-07T19:49:35.546Z,96157.97
2023-03-07T19:53:14.627Z,96161.10
2023-03-07T19:56:51.472Z,96161.14
2023-03-07T20:00:32.797Z,96163.17
2023-03-07T20:04:08.135Z,96161.69
2023-03-07T20:07:44.060Z,96163.69
2023-03-07T20:11:27.875Z,96160.33
2023-03-07T20:15:04.125Z,96158.29
2023-03-07T20:18:38.632Z,96158.63
2023-03-07T20:22:14.850Z,96154.92
2023-03-07T20:26:17.131Z,96154.02
2023-03-07T20:29:50.687Z,96154.02
2023-03-07T20:33:10.645Z,96156.02
2023-03-07T20:37:06.981Z,96153.26
2023-03-07T20:40:26.829Z,96153.56
2023-03-07T20:44:25.023Z,96155.00
2023-03-07T20:47:40.034Z,96155.21
2023-03-07T20:51:20.922Z,96156.40
2023-03-07T20:54:55.226Z,96153.88
2023-03-07T20:58:33.722Z,96151.96
2023-03-07T21:02:29.546Z,96145.28
2023-03-07T21:05:53.387Z,96141.69
2023-03-07T21:09:25.646Z,96143.89
2023-03-07T21:13:02.538Z,96144.92
2023-03-07T21:16:41.113Z,96146.91
2023-03-07T21:20:39.193Z,96153.75
2023-03-07T21:24:14.990Z,96151.21
2023-03-07T21:27:33.328Z,96149.16
2023-03-07T21:31:32.919Z,96150.52
2023-03-07T21:35:08.225Z,96150.92
2023-03-07T21:38:26.693Z,96150.44
2023-03-07T21:42:04.307Z,96155.59
2023-03-07T21:45:43.088Z,96155.67
2023-03-07T21:49:19.642Z,96152.69
2023-03-07T21:52:57.409Z,96155.00
2023-03-07T21:56:34.893Z,96159.25
2023-03-07T22:00:34.179Z,96154.52
2023-03-07T22:03:55.615Z,96146.61
2023-03-07T22:07:49.502Z,96153.03
2023-03-07T22:11:07.758Z,96154.11
2023-03-07T22:15:03.853Z,96148.58
2023-03-07T22:18:20.969Z,96147.04
2023-03-07T22:22:21.618Z,96145.23
2023-03-07T22:25:39.013Z,96146.76
2023-03-07T22:29:13.968Z,96143.95
2023-03-07T22:33:10.705Z,96141.33
2023-03-07T22:36:54.752Z,96144.38
2023-03-07T22:40:08.161Z,96146.58
2023-03-07T22:43:46.020Z,96147.66
2023-03-07T22:47:22.746Z,96148.34
2023-03-07T22:51:19.049Z,96151.54
2023-03-07T22:54:39.447Z,96149.33
2023-03-07T22:58:16.081Z,96146.38
2023-03-07T23:01:53.229Z,96147.27
2023-03-07T23:05:32.707Z,96149.70
2023-03-07T23:09:08.973Z,96149.55
2023-03-07T23:12:50.090Z,96153.86
2023-03-07T23:16:29.406Z,96152.06
2023-03-07T23:20:01.826Z,96161.49
2023-03-07T23:23:39.559Z,96163.98
2023-03-07T23:27:17.019Z,96156.98
2023-03-07T23:30:54.802Z,96155.73
2023-03-07T23:34:32.413Z,96158.58
2023-03-07T23:38:13.352Z,96159.70
2023-03-07T23:41:47.712Z,96155.64
2023-03-07T23:45:44.559Z,96154.64
2023-03-07T23:49:03.163Z,96158.22
2023-03-07T23:52:40.771Z,96164.00
2023-03-07T23:56:18.668Z,96160.54
